Time;durP1;ratioP1;P1;durP2;ratioP2;P2;SDS_P1;SDS_P2;PMS_P1;PMS_P2;Temp;Humidity;BMP_temperature;BMP_pressure;BME280_temperature;BME280_humidity;BME280_pressure;Samples;Min_cycle;Max_cycle;Signal;HPM_P1;HPM_P2
2022/05/17 00:00:12;;;;;;;6.75;2.85;;;;;;;14.29;68.31;94877.06;5039866;28;20289;-74
2022/05/17 00:02:39;;;;;;;10.15;3.15;;;;;;;14.32;68.29;94876.38;5043909;28;20235;-75
2022/05/17 00:05:09;;;;;;;4.38;2.67;;;;;;;14.20;68.62;94869.81;5043268;28;20203;-74
2022/05/17 00:07:36;;;;;;;3.00;2.35;;;;;;;14.23;68.56;94874.56;5037433;28;20281;-74
2022/05/17 00:10:04;;;;;;;3.83;2.60;;;;;;;14.27;68.28;94877.41;5038987;28;20228;-75
2022/05/17 00:12:30;;;;;;;5.97;2.97;;;;;;;14.31;67.97;94877.50;5044805;28;20228;-74
2022/05/17 00:14:57;;;;;;;6.45;2.88;;;;;;;14.28;67.73;94876.25;5044002;28;20692;-75
2022/05/17 00:17:24;;;;;;;7.22;2.28;;;;;;;13.92;68.21;94879.84;5037482;28;20215;-75
2022/05/17 00:19:52;;;;;;;6.97;2.58;;;;;;;13.91;68.04;94883.72;5037349;28;20216;-75
2022/05/17 00:22:20;;;;;;;4.25;2.42;;;;;;;13.73;68.79;94890.53;5044535;28;20211;-75
2022/05/17 00:24:47;;;;;;;4.05;2.75;;;;;;;13.66;69.33;94882.16;5044243;28;20207;-75
2022/05/17 00:27:14;;;;;;;5.18;2.35;;;;;;;13.65;69.66;94881.34;5050856;28;20720;-75
2022/05/17 00:29:41;;;;;;;5.10;2.47;;;;;;;13.50;70.96;94879.31;5051516;28;20235;-75
2022/05/17 00:32:09;;;;;;;5.57;3.20;;;;;;;13.52;71.31;94883.28;5050706;28;20231;-75
2022/05/17 00:34:36;;;;;;;4.43;2.80;;;;;;;13.54;71.58;94885.63;5037582;28;20598;-75
2022/05/17 00:37:03;;;;;;;4.63;3.03;;;;;;;13.63;71.29;94886.34;5050819;28;20200;-74
2022/05/17 00:39:32;;;;;;;5.68;2.92;;;;;;;13.68;70.88;94879.84;5050604;28;20223;-74
2022/05/17 00:41:59;;;;;;;5.53;3.60;;;;;;;13.74;70.74;94878.50;5041637;28;20207;-74
2022/05/17 00:44:45;;;;;;;6.97;3.53;;;;;;;13.77;70.56;94884.06;5058191;28;20217;-74
2022/05/17 00:47:16;;;;;;;5.55;3.03;;;;;;;13.79;70.42;94883.72;5050552;28;20294;-75
2022/05/17 00:49:48;;;;;;;5.47;2.60;;;;;;;13.69;70.66;94886.88;5044976;28;20228;-74
2022/05/17 00:52:22;;;;;;;4.30;2.83;;;;;;;13.69;70.24;94876.00;5043959;28;20204;-75
2022/05/17 00:54:52;;;;;;;6.80;3.83;;;;;;;13.76;70.01;94882.47;5038828;28;20196;-74
2022/05/17 00:57:38;;;;;;;5.40;3.13;;;;;;;13.78;69.84;94876.69;5049239;28;20199;-75
2022/05/17 01:00:08;;;;;;;7.53;2.90;;;;;;;13.81;69.56;94878.72;5041796;28;20196;-75
2022/05/17 01:02:36;;;;;;;8.25;3.92;;;;;;;13.86;69.82;94875.75;5037051;28;20219;-74
2022/05/17 01:05:05;;;;;;;6.60;3.35;;;;;;;13.77;69.60;94872.38;5050505;28;20273;-74
2022/05/17 01:07:38;;;;;;;4.53;3.38;;;;;;;13.79;69.30;94867.38;5037456;28;20539;-74
2022/05/17 01:10:08;;;;;;;3.75;2.70;;;;;;;13.79;69.45;94870.13;5037807;28;20251;-74
2022/05/17 01:12:35;;;;;;;9.68;3.45;;;;;;;13.78;68.98;94871.25;5043898;28;20287;-74
2022/05/17 01:15:02;;;;;;;6.63;3.42;;;;;;;13.75;69.57;94869.19;5043860;28;20216;-74
2022/05/17 01:17:32;;;;;;;7.63;4.28;;;;;;;13.77;69.67;94861.50;5037471;28;20206;-75
2022/05/17 01:20:00;;;;;;;11.98;5.57;;;;;;;13.67;70.12;94868.16;5036676;28;20192;-74
2022/05/17 01:22:28;;;;;;;7.60;3.10;;;;;;;13.61;70.01;94866.81;5042611;28;20204;-75
2022/05/17 01:24:55;;;;;;;4.05;3.03;;;;;;;13.64;70.01;94851.75;5044758;28;20219;-74
2022/05/17 01:27:26;;;;;;;5.93;3.05;;;;;;;13.66;70.07;94860.38;5050737;28;20204;-74
2022/05/17 01:29:54;;;;;;;6.47;3.30;;;;;;;13.66;70.69;94865.81;5048373;28;20637;-75
2022/05/17 01:32:23;;;;;;;8.73;3.40;;;;;;;13.55;71.01;94848.31;5041067;28;20195;-74
2022/05/17 01:34:50;;;;;;;4.60;2.83;;;;;;;13.45;71.66;94844.13;5040129;28;20801;-74
2022/05/17 01:37:19;;;;;;;9.13;3.45;;;;;;;13.42;71.93;94851.03;5053734;28;20681;-74
2022/05/17 01:39:47;;;;;;;5.93;2.60;;;;;;;13.46;71.55;94851.97;5053645;28;20703;-75
2022/05/17 01:42:15;;;;;;;4.82;3.20;;;;;;;13.49;71.35;94854.00;5043132;28;20204;-74
2022/05/17 01:44:44;;;;;;;5.43;3.28;;;;;;;13.50;71.51;94852.88;5046869;28;20221;-74
2022/05/17 01:47:11;;;;;;;6.50;3.15;;;;;;;13.46;71.46;94857.41;5044967;28;20248;-75
2022/05/17 01:49:38;;;;;;;5.70;2.78;;;;;;;13.40;71.34;94853.31;5040095;28;20293;-74
2022/05/17 01:52:06;;;;;;;6.53;3.00;;;;;;;13.34;71.59;94857.41;5042133;28;20223;-73
2022/05/17 01:54:33;;;;;;;4.38;2.90;;;;;;;13.27;71.66;94854.44;5046872;28;20208;-73
2022/05/17 01:57:01;;;;;;;4.97;3.00;;;;;;;13.26;71.26;94862.94;5044850;28;20199;-73
2022/05/17 01:59:28;;;;;;;6.57;3.17;;;;;;;13.11;71.24;94867.91;5053153;28;20588;-73
2022/05/17 02:01:55;;;;;;;4.65;2.90;;;;;;;13.10;71.55;94876.38;5052953;28;20716;-74
2022/05/17 02:04:22;;;;;;;5.07;3.17;;;;;;;13.06;71.89;94870.03;5047477;28;20239;-74
2022/05/17 02:06:49;;;;;;;3.88;2.50;;;;;;;13.02;71.92;94863.66;5045868;28;20227;-74
2022/05/17 02:09:15;;;;;;;4.50;3.22;;;;;;;12.94;72.24;94867.28;5039638;28;20223;-74
2022/05/17 02:11:42;;;;;;;5.43;2.92;;;;;;;12.92;72.45;94874.97;5039859;28;20223;-74
2022/05/17 02:14:11;;;;;;;5.32;3.00;;;;;;;12.87;72.96;94867.81;5052792;28;20706;-73
2022/05/17 02:16:38;;;;;;;4.45;2.70;;;;;;;12.85;73.27;94880.19;5053526;28;20196;-75
2022/05/17 02:19:07;;;;;;;4.03;2.90;;;;;;;12.84;73.37;94878.59;5040156;28;20211;-73
2022/05/17 02:21:34;;;;;;;5.35;3.58;;;;;;;12.93;73.21;94871.13;5052833;28;20235;-74
2022/05/17 02:24:01;;;;;;;5.55;3.17;;;;;;;12.88;73.25;94869.41;5053113;28;20756;-74
2022/05/17 02:26:28;;;;;;;5.90;3.13;;;;;;;12.85;73.56;94874.75;5053196;28;20207;-74
2022/05/17 02:28:55;;;;;;;5.85;3.33;;;;;;;12.83;73.74;94877.78;5045706;28;20204;-74
2022/05/17 02:31:23;;;;;;;4.15;3.10;;;;;;;12.87;73.56;94873.25;5046571;28;20253;-74
2022/05/17 02:33:50;;;;;;;8.27;2.92;;;;;;;12.88;73.54;94874.84;5040436;28;20203;-75
2022/05/17 02:36:17;;;;;;;7.07;3.45;;;;;;;12.91;73.43;94878.81;5039923;28;20216;-73
2022/05/17 02:38:44;;;;;;;4.78;2.70;;;;;;;12.91;73.13;94874.19;5052589;28;20571;-74
2022/05/17 02:41:12;;;;;;;7.03;3.25;;;;;;;12.92;73.15;94866.81;5050693;28;20204;-74
2022/05/17 02:43:39;;;;;;;4.45;2.70;;;;;;;12.92;72.98;94870.34;5047854;28;20235;-74
2022/05/17 02:46:07;;;;;;;4.22;3.10;;;;;;;12.84;73.21;94876.66;5056677;28;20659;-74
2022/05/17 02:48:36;;;;;;;5.32;3.13;;;;;;;12.79;73.59;94868.72;5052798;28;20231;-74
2022/05/17 02:51:10;;;;;;;4.65;3.03;;;;;;;12.78;73.39;94870.63;5048294;28;20606;-74
2022/05/17 02:53:37;;;;;;;5.97;3.20;;;;;;;12.76;73.34;94864.72;5044299;28;20207;-74
2022/05/17 02:56:05;;;;;;;4.30;3.28;;;;;;;12.71;73.90;94864.94;5047526;28;20606;-74
2022/05/17 02:58:32;;;;;;;7.38;2.55;;;;;;;12.74;73.72;94874.34;5044510;28;20207;-74
2022/05/17 03:00:59;;;;;;;4.40;3.50;;;;;;;12.79;73.86;94872.22;5038657;28;20199;-74
2022/05/17 03:03:25;;;;;;;3.58;2.65;;;;;;;12.76;73.85;94872.88;5040793;28;20200;-74
2022/05/17 03:05:54;;;;;;;4.22;3.15;;;;;;;12.85;73.75;94872.78;5045635;28;20200;-74
2022/05/17 03:08:21;;;;;;;8.18;3.35;;;;;;;12.87;73.48;94867.03;5044259;28;20213;-74
2022/05/17 03:10:48;;;;;;;12.38;3.33;;;;;;;12.75;73.87;94871.28;5046479;28;20236;-74
2022/05/17 03:13:16;;;;;;;6.93;2.60;;;;;;;13.00;73.11;94872.16;5044726;28;20206;-75
2022/05/17 03:15:43;;;;;;;5.10;2.78;;;;;;;13.32;72.74;94875.19;5052094;28;20200;-74
2022/05/17 03:18:10;;;;;;;4.55;2.83;;;;;;;13.77;71.23;94872.38;5039706;28;20208;-75
2022/05/17 03:20:37;;;;;;;5.22;3.00;;;;;;;14.29;69.53;94857.97;5045996;28;20207;-75
2022/05/17 03:23:06;;;;;;;4.38;3.00;;;;;;;14.93;67.53;94858.66;5044348;28;20199;-74
2022/05/17 03:25:32;;;;;;;4.40;3.03;;;;;;;15.63;65.65;94864.34;5052225;28;20253;-75
2022/05/17 03:28:00;;;;;;;7.85;4.00;;;;;;;16.37;62.13;94858.22;5038974;28;20204;-75
2022/05/17 03:30:27;;;;;;;4.60;3.50;;;;;;;17.09;60.09;94850.28;5045289;28;20247;-75
2022/05/17 03:32:54;;;;;;;3.72;3.10;;;;;;;17.71;58.64;94852.56;5044835;28;20203;-75
2022/05/17 03:35:22;;;;;;;7.20;5.35;;;;;;;18.10;57.54;94857.84;5038830;28;20233;-74
2022/05/17 03:37:49;;;;;;;5.50;3.08;;;;;;;19.04;54.21;94848.50;5038123;28;20220;-74
2022/05/17 03:40:18;;;;;;;10.30;3.97;;;;;;;19.73;52.23;94846.03;5043375;28;20266;-75
2022/05/17 03:42:45;;;;;;;7.93;3.08;;;;;;;20.37;50.70;94843.75;5045313;28;20306;-74
2022/05/17 03:45:13;;;;;;;4.95;4.45;;;;;;;19.97;51.44;94852.09;5040097;28;20250;-75
2022/05/17 03:47:40;;;;;;;7.18;5.05;;;;;;;20.03;51.68;94854.13;5049893;28;20558;-75
2022/05/17 03:50:08;;;;;;;5.70;4.45;;;;;;;20.55;49.96;94850.16;5040545;28;20227;-75
2022/05/17 03:52:35;;;;;;;6.40;3.13;;;;;;;20.68;49.09;94844.31;5037159;28;20201;-72
2022/05/17 03:55:05;;;;;;;7.10;3.00;;;;;;;20.94;48.36;94846.78;5050677;28;20211;-75
2022/05/17 03:57:34;;;;;;;8.13;4.03;;;;;;;20.86;48.88;94856.19;5051651;28;20227;-75
2022/05/17 04:00:01;;;;;;;4.07;3.65;;;;;;;21.08;48.48;94857.84;5041517;28;20208;-78
2022/05/17 04:02:28;;;;;;;6.65;3.67;;;;;;;21.59;46.86;94854.06;5044836;28;20204;-82
2022/05/17 04:04:55;;;;;;;6.47;3.97;;;;;;;22.48;45.05;94849.28;5040675;28;20200;-76
2022/05/17 04:07:23;;;;;;;7.30;4.00;;;;;;;23.54;42.37;94836.22;5037142;28;20277;-76
2022/05/17 04:09:53;;;;;;;5.57;4.45;;;;;;;23.70;41.79;94844.78;5039842;28;20236;-77
2022/05/17 04:12:20;;;;;;;9.63;4.35;;;;;;;24.50;40.88;94841.75;5048709;28;20219;-76
2022/05/17 04:14:48;;;;;;;6.00;3.70;;;;;;;24.45;40.86;94844.97;5050719;28;20215;-76
2022/05/17 04:17:15;;;;;;;7.93;4.47;;;;;;;25.09;39.60;94838.72;5050949;28;20207;-78
2022/05/17 04:19:41;;;;;;;6.38;4.15;;;;;;;26.05;38.02;94832.56;5050791;28;20215;-75
2022/05/17 04:22:09;;;;;;;5.43;4.10;;;;;;;26.04;37.13;94831.00;5049507;28;20251;-79
2022/05/17 04:24:36;;;;;;;8.50;4.85;;;;;;;26.60;36.63;94834.00;5049107;28;20243;-77
2022/05/17 04:27:04;;;;;;;12.02;5.00;;;;;;;26.32;36.74;94835.31;5044544;28;20196;-78
2022/05/17 04:29:31;;;;;;;9.23;6.05;;;;;;;26.77;36.30;94844.00;5043775;28;20302;-78
2022/05/17 04:31:59;;;;;;;6.43;5.20;;;;;;;26.57;37.39;94834.84;5036580;28;20204;-77
2022/05/17 04:34:26;;;;;;;10.35;5.78;;;;;;;27.07;35.96;94840.25;5050992;28;20238;-75
2022/05/17 04:36:54;;;;;;;7.15;5.18;;;;;;;25.13;39.29;94858.88;5050845;28;20771;-74
2022/05/17 04:39:22;;;;;;;6.25;5.18;;;;;;;23.44;42.80;94864.69;5050607;28;20206;-76
2022/05/17 04:41:49;;;;;;;7.80;5.55;;;;;;;24.49;41.34;94862.31;5042986;28;20226;-76
2022/05/17 04:44:16;;;;;;;7.18;5.30;;;;;;;23.49;42.78;94867.03;5056709;28;20201;-76
2022/05/17 04:46:43;;;;;;;7.15;5.50;;;;;;;24.48;40.67;94866.28;5050353;28;20239;-76
2022/05/17 04:49:11;;;;;;;8.13;4.65;;;;;;;24.46;40.72;94863.16;5037412;28;20293;-76
2022/05/17 04:51:38;;;;;;;6.32;4.70;;;;;;;25.45;39.10;94848.13;5043229;28;20235;-77
2022/05/17 04:54:05;;;;;;;8.95;5.55;;;;;;;25.49;39.00;94857.19;5045022;28;20200;-76
2022/05/17 04:56:34;;;;;;;8.18;5.10;;;;;;;26.55;37.07;94845.59;5050905;28;20265;-77
2022/05/17 04:59:01;;;;;;;9.55;5.05;;;;;;;27.00;36.35;94845.19;5037296;28;20196;-78
2022/05/17 05:01:28;;;;;;;8.23;5.40;;;;;;;27.55;34.95;94836.81;5050795;28;20199;-78
2022/05/17 05:03:55;;;;;;;11.73;5.38;;;;;;;28.88;32.96;94835.16;5051020;28;20207;-77
2022/05/17 05:06:23;;;;;;;6.13;4.80;;;;;;;28.46;33.00;94835.06;5052394;28;20203;-78
2022/05/17 05:08:50;;;;;;;11.52;5.13;;;;;;;28.92;32.85;94831.06;5054692;28;20227;-77
2022/05/17 05:11:17;;;;;;;10.43;4.72;;;;;;;29.51;31.47;94843.75;5053949;28;20238;-77
2022/05/17 05:13:45;;;;;;;7.10;4.95;;;;;;;29.42;31.25;94846.38;5038529;28;20211;-78
2022/05/17 05:16:13;;;;;;;11.77;5.68;;;;;;;30.49;30.36;94832.59;5044024;28;20674;-77
2022/05/17 05:18:40;;;;;;;9.95;5.10;;;;;;;30.47;30.15;94835.09;5041374;28;20621;-78
2022/05/17 05:21:09;;;;;;;5.93;4.80;;;;;;;30.46;29.74;94833.53;5053400;28;20223;-76
2022/05/17 05:23:37;;;;;;;6.80;5.00;;;;;;;29.40;31.31;94840.47;5051400;28;20201;-78
2022/05/17 05:26:04;;;;;;;8.68;4.65;;;;;;;30.39;29.45;94828.94;5045004;28;20228;-75
2022/05/17 05:28:32;;;;;;;5.22;4.43;;;;;;;29.06;31.69;94831.88;5040627;28;20667;-77
2022/05/17 05:30:59;;;;;;;10.05;4.47;;;;;;;28.38;32.23;94833.69;5054670;28;20322;-74
2022/05/17 05:33:26;;;;;;;7.05;4.57;;;;;;;28.19;32.59;94840.94;5054370;28;20232;-77
2022/05/17 05:35:53;;;;;;;9.23;4.97;;;;;;;27.86;33.92;94845.69;5054668;28;20204;-77
2022/05/17 05:38:20;;;;;;;9.25;4.90;;;;;;;28.55;32.60;94840.03;5054172;28;20207;-74
2022/05/17 05:40:48;;;;;;;5.95;4.50;;;;;;;28.80;32.07;94840.16;5041485;28;20231;-76
2022/05/17 05:43:16;;;;;;;11.13;4.38;;;;;;;30.15;29.86;94841.75;5054848;28;20202;-77
2022/05/17 05:45:42;;;;;;;6.32;3.90;;;;;;;29.49;30.76;94840.59;5060863;28;20231;-78
2022/05/17 05:48:10;;;;;;;4.80;3.90;;;;;;;30.51;29.87;94830.16;5047380;28;20673;-76
2022/05/17 05:50:37;;;;;;;7.60;3.60;;;;;;;30.71;29.55;94829.91;5047226;28;20255;-77
2022/05/17 05:53:06;;;;;;;5.05;3.85;;;;;;;30.17;29.97;94833.69;5048810;28;20200;-77
2022/05/17 05:55:37;;;;;;;7.63;4.18;;;;;;;30.25;30.28;94845.41;5053371;28;20199;-77
2022/05/17 05:58:07;;;;;;;6.20;4.07;;;;;;;30.85;29.02;94835.00;5053906;28;20214;-79
2022/05/17 06:00:35;;;;;;;5.75;3.85;;;;;;;30.75;29.13;94827.75;5053790;28;20208;-78
2022/05/17 06:03:02;;;;;;;5.38;3.50;;;;;;;30.51;29.20;94834.97;5053669;28;20196;-77
2022/05/17 06:05:31;;;;;;;6.88;3.90;;;;;;;31.38;29.10;94835.09;5037105;28;20208;-80
2022/05/17 06:07:58;;;;;;;4.57;3.50;;;;;;;31.41;28.47;94834.16;5052509;28;20231;-83
2022/05/17 06:10:25;;;;;;;5.70;4.28;;;;;;;30.70;28.63;94836.72;5054750;28;20232;-80
2022/05/17 06:12:52;;;;;;;6.85;3.40;;;;;;;30.10;29.14;94838.72;5043231;28;20204;-78
2022/05/17 06:15:20;;;;;;;7.38;3.40;;;;;;;31.47;27.64;94840.72;5048627;28;20555;-79
2022/05/17 06:17:47;;;;;;;4.78;3.42;;;;;;;31.88;28.07;94827.56;5052602;28;20218;-76
2022/05/17 06:20:16;;;;;;;9.85;4.15;;;;;;;32.49;26.93;94824.66;5052570;28;20311;-77
2022/05/17 06:22:43;;;;;;;6.68;3.50;;;;;;;32.18;26.76;94829.53;5043344;28;20205;-76
2022/05/17 06:25:11;;;;;;;8.55;3.97;;;;;;;32.02;26.95;94833.38;5050053;28;20231;-80
2022/05/17 06:27:38;;;;;;;7.45;3.95;;;;;;;31.64;27.32;94842.09;5052692;28;20207;-80
2022/05/17 06:30:06;;;;;;;9.73;3.80;;;;;;;31.49;27.74;94835.44;5052573;28;20250;-80
2022/05/17 06:32:34;;;;;;;6.40;4.00;;;;;;;30.52;28.57;94840.09;5052484;28;20289;-77
2022/05/17 06:35:01;;;;;;;5.20;3.72;;;;;;;30.33;29.50;94835.59;5039380;28;20203;-78
2022/05/17 06:37:27;;;;;;;6.03;3.28;;;;;;;30.41;28.89;94836.88;5041705;28;20200;-77
2022/05/17 06:39:55;;;;;;;4.53;3.20;;;;;;;29.69;29.73;94838.38;5046477;28;20240;-76
2022/05/17 06:42:22;;;;;;;5.18;3.50;;;;;;;30.40;29.30;94836.09;5039151;28;20284;-85
2022/05/17 06:44:49;;;;;;;7.30;3.55;;;;;;;30.63;28.91;94836.97;5052419;28;20199;-84
2022/05/17 06:47:16;;;;;;;5.32;3.65;;;;;;;29.15;29.95;94837.59;5053122;28;20231;-87
2022/05/17 06:49:44;;;;;;;6.03;3.70;;;;;;;30.98;28.32;94820.94;5052916;28;20200;-84
2022/05/17 06:52:11;;;;;;;5.90;3.55;;;;;;;31.65;26.93;94824.06;5039804;28;20855;-86
2022/05/17 06:54:40;;;;;;;9.98;3.50;;;;;;;33.07;25.59;94820.19;5052941;28;20203;-85
2022/05/17 06:57:08;;;;;;;6.18;3.15;;;;;;;33.41;26.09;94817.03;5042355;28;20204;-87
2022/05/17 06:59:37;;;;;;;4.80;3.63;;;;;;;33.43;25.53;94819.38;5050239;28;20203;-81
2022/05/17 07:02:05;;;;;;;9.27;4.47;;;;;;;31.38;27.99;94821.06;5052020;28;20192;-88
2022/05/17 07:04:33;;;;;;;6.65;4.13;;;;;;;31.36;28.46;94821.53;5050393;28;20683;-78
2022/05/17 07:07:02;;;;;;;6.45;4.45;;;;;;;31.62;27.91;94810.94;5038536;28;20231;-86
2022/05/17 07:09:30;;;;;;;8.23;4.35;;;;;;;31.97;27.57;94822.00;5047641;28;20217;-83
2022/05/17 07:14:41;;;;;;;5.35;4.30;;;;;;;30.89;28.96;94816.03;5040278;28;20299;-80
2022/05/17 07:17:16;;;;;;;7.53;4.72;;;;;;;30.87;28.99;94821.34;5037370;28;20211;-86
2022/05/17 07:19:43;;;;;;;5.72;4.28;;;;;;;31.37;28.45;94808.31;5051483;28;20706;-81
2022/05/17 07:22:12;;;;;;;6.45;4.70;;;;;;;29.63;30.55;94815.03;5046192;28;20209;-81
2022/05/17 07:24:41;;;;;;;5.40;4.28;;;;;;;31.14;28.82;94803.19;5044955;28;20231;-82
2022/05/17 07:27:10;;;;;;;6.75;3.90;;;;;;;31.35;29.39;94808.00;5038230;28;20207;-84
2022/05/17 07:29:37;;;;;;;5.88;4.20;;;;;;;30.03;30.35;94812.59;5047697;28;20204;-78
2022/05/17 07:32:05;;;;;;;6.63;4.10;;;;;;;30.78;30.13;94800.88;5045026;28;20240;-85
2022/05/17 07:34:33;;;;;;;8.52;4.90;;;;;;;30.10;30.10;94800.38;5045256;28;20222;-88
2022/05/17 07:37:00;;;;;;;6.35;4.40;;;;;;;29.40;31.41;94809.75;5040626;28;20234;-87
2022/05/17 07:39:28;;;;;;;9.52;4.72;;;;;;;29.03;32.53;94813.22;5051297;28;20666;-86
2022/05/17 07:41:55;;;;;;;8.63;5.68;;;;;;;28.71;32.21;94814.88;5052158;28;20199;-81
2022/05/17 07:44:22;;;;;;;11.50;5.25;;;;;;;28.09;33.06;94811.31;5060925;28;20199;-81
2022/05/17 07:46:48;;;;;;;10.50;4.82;;;;;;;28.23;33.97;94808.19;5051195;28;20247;-83
2022/05/17 07:49:15;;;;;;;9.38;4.65;;;;;;;28.58;33.49;94802.88;5050756;28;20211;-88
2022/05/17 07:51:42;;;;;;;8.95;5.60;;;;;;;28.35;33.04;94803.13;5051299;28;20239;-86
2022/05/17 07:54:09;;;;;;;11.45;5.20;;;;;;;28.03;33.71;94798.31;5038477;28;20212;-76
2022/05/17 07:56:37;;;;;;;9.18;4.95;;;;;;;28.40;33.81;94795.03;5042408;28;20270;-81
2022/05/17 07:59:04;;;;;;;8.60;5.38;;;;;;;28.09;33.87;94794.59;5046974;28;20200;-82
2022/05/17 08:01:31;;;;;;;11.85;5.55;;;;;;;27.57;35.53;94795.47;5050945;28;20207;-82
2022/05/17 08:03:58;;;;;;;8.00;5.78;;;;;;;27.90;34.89;94784.31;5037368;28;20219;-81
2022/05/17 08:06:25;;;;;;;8.63;5.85;;;;;;;27.17;35.25;94789.19;5041092;28;20236;-82
2022/05/17 08:08:52;;;;;;;9.13;5.68;;;;;;;28.67;33.62;94786.31;5047823;28;20211;-80
2022/05/17 08:11:19;;;;;;;7.03;4.80;;;;;;;28.72;33.00;94788.56;5050957;28;20231;-78
2022/05/17 08:13:47;;;;;;;9.02;5.53;;;;;;;27.85;33.95;94782.88;5033302;28;20200;-81
2022/05/17 08:16:14;;;;;;;9.80;6.13;;;;;;;27.90;33.98;94784.31;5040506;28;20218;-81
2022/05/17 08:18:41;;;;;;;7.80;5.60;;;;;;;28.38;33.83;94779.97;5036571;28;20235;-79
2022/05/17 08:21:08;;;;;;;10.55;6.20;;;;;;;27.88;34.38;94776.41;5050790;28;20207;-78
2022/05/17 08:23:34;;;;;;;10.60;5.05;;;;;;;27.63;34.00;94769.88;5037654;28;20231;-78
2022/05/17 08:28:48;;;;;;;9.50;5.03;;;;;;;27.66;34.00;94763.44;5050105;28;20222;-78
2022/05/17 08:31:15;;;;;;;6.80;5.47;;;;;;;27.79;33.45;94772.66;5049779;28;20326;-81
2022/05/17 08:33:42;;;;;;;8.68;4.80;;;;;;;28.30;33.04;94763.41;5038078;28;20199;-79
2022/05/17 08:36:11;;;;;;;8.43;4.57;;;;;;;28.97;31.97;94765.59;5050848;28;20227;-80
2022/05/17 08:38:39;;;;;;;8.18;4.32;;;;;;;28.95;32.21;94762.44;5051263;28;20223;-80
2022/05/17 08:41:12;;;;;;;5.93;4.07;;;;;;;27.36;32.39;94767.28;5051387;28;20624;-78
2022/05/17 08:43:50;;;;;;;9.10;4.78;;;;;;;27.23;34.52;94767.97;5060703;28;20218;-80
2022/05/17 08:46:35;;;;;;;5.97;3.80;;;;;;;27.60;33.40;94757.63;5071468;28;20231;-79
2022/05/17 08:49:06;;;;;;;8.23;4.55;;;;;;;27.90;33.93;94750.91;5054867;28;20290;-76
2022/05/17 08:51:40;;;;;;;7.68;5.30;;;;;;;27.41;34.19;94764.78;5041902;28;20307;-78
2022/05/17 08:54:10;;;;;;;11.55;4.20;;;;;;;26.73;34.42;94759.88;5054309;28;20199;-81
2022/05/17 08:56:41;;;;;;;7.22;3.40;;;;;;;27.15;31.17;94757.44;5043701;28;20194;-81
2022/05/17 08:59:14;;;;;;;4.32;3.10;;;;;;;26.88;30.62;94755.59;5041643;28;20287;-80
2022/05/17 09:01:46;;;;;;;4.35;2.47;;;;;;;27.43;29.58;94750.44;5044667;28;20214;-80
2022/05/17 09:04:32;;;;;;;2.97;2.20;;;;;;;28.06;28.85;94745.31;5039208;28;20216;-78
2022/05/17 09:07:12;;;;;;;5.22;3.20;;;;;;;27.48;30.04;94747.13;5041161;28;20224;-79
2022/05/17 09:09:48;;;;;;;3.38;2.70;;;;;;;26.65;29.86;94747.31;5043720;28;20200;-74
2022/05/17 09:12:24;;;;;;;6.00;2.58;;;;;;;27.26;29.68;94741.28;5051469;28;20303;-81
2022/05/17 09:14:56;;;;;;;2.03;1.85;;;;;;;27.11;28.66;94745.59;5046158;28;20191;-80
2022/05/17 09:17:25;;;;;;;3.38;2.03;;;;;;;26.96;29.16;94744.34;5040803;28;20227;-77
2022/05/17 09:19:53;;;;;;;2.80;2.08;;;;;;;27.23;29.03;94736.56;5054162;28;20211;-81
2022/05/17 09:22:21;;;;;;;3.92;2.67;;;;;;;27.88;28.06;94736.66;5053815;28;20220;-80
2022/05/17 09:24:57;;;;;;;4.20;2.40;;;;;;;28.34;28.45;94729.09;5054572;28;20200;-80
2022/05/17 09:27:27;;;;;;;4.55;2.80;;;;;;;27.78;29.50;94729.34;5042279;28;20188;-78
2022/05/17 09:30:06;;;;;;;5.28;3.55;;;;;;;27.27;30.21;94731.72;5052893;28;20247;-79
2022/05/17 09:32:35;;;;;;;4.53;2.75;;;;;;;27.56;30.01;94738.22;5044009;28;20230;-80
2022/05/17 09:35:05;;;;;;;5.03;3.42;;;;;;;28.07;31.38;94732.97;5041168;28;20207;-75
2022/05/17 09:37:36;;;;;;;6.57;2.90;;;;;;;27.81;29.52;94728.47;5054346;28;20548;-77
2022/05/17 09:40:06;;;;;;;4.00;2.45;;;;;;;27.35;27.22;94721.19;5053966;28;20216;-80
2022/05/17 09:42:36;;;;;;;2.22;1.70;;;;;;;27.60;27.76;94713.09;5054109;28;20203;-77
2022/05/17 09:45:11;;;;;;;4.95;2.28;;;;;;;27.66;27.74;94713.34;5063615;28;20595;-79
2022/05/17 09:47:44;;;;;;;4.43;1.90;;;;;;;28.17;26.97;94708.81;5052693;28;20218;-78
2022/05/17 09:53:05;;;;;;;1.80;1.70;;;;;;;27.92;25.24;94703.91;5046888;28;20224;-79
2022/05/17 09:55:34;;;;;;;5.85;1.95;;;;;;;28.33;25.76;94708.81;5047302;28;20216;-80
2022/05/17 09:58:04;;;;;;;4.35;2.20;;;;;;;28.57;25.80;94703.75;5053693;28;20294;-80
2022/05/17 10:00:40;;;;;;;6.40;2.15;;;;;;;28.04;25.99;94708.75;5040249;28;20207;-77
2022/05/17 10:03:27;;;;;;;2.80;1.98;;;;;;;28.16;27.30;94694.09;5044532;28;20311;-80
2022/05/17 10:05:58;;;;;;;6.10;2.25;;;;;;;28.94;25.21;94691.94;5046766;28;20236;-79
2022/05/17 10:08:39;;;;;;;4.93;2.33;;;;;;;28.87;25.94;94689.34;5046581;28;20219;-80
2022/05/17 10:11:15;;;;;;;4.05;2.25;;;;;;;28.67;25.88;94685.16;5033860;28;20726;-80
2022/05/17 10:13:53;;;;;;;3.20;2.50;;;;;;;28.54;26.56;94682.34;5049018;28;20199;-81
2022/05/17 10:16:34;;;;;;;4.57;2.03;;;;;;;28.23;26.07;94685.59;5053373;28;20311;-80
2022/05/17 10:19:05;;;;;;;5.28;2.40;;;;;;;27.54;27.66;94676.59;5047333;28;20200;-75
2022/05/17 10:21:39;;;;;;;3.47;2.20;;;;;;;27.76;28.51;94673.28;5046358;28;20219;-76
2022/05/17 10:24:15;;;;;;;5.75;2.80;;;;;;;27.39;28.06;94669.81;5040454;28;20199;-78
2022/05/17 10:26:47;;;;;;;3.17;2.40;;;;;;;27.65;27.41;94670.78;5039244;28;20195;-81
2022/05/17 10:29:23;;;;;;;3.75;2.58;;;;;;;28.21;27.72;94665.75;5052732;28;20236;-79
2022/05/17 10:31:59;;;;;;;4.13;2.05;;;;;;;28.49;27.50;94657.78;5039631;28;20214;-78
2022/05/17 10:34:38;;;;;;;5.38;2.33;;;;;;;28.29;26.27;94657.97;5039850;28;20232;-78
2022/05/17 10:37:08;;;;;;;2.55;1.90;;;;;;;28.02;26.60;94663.09;5041472;28;20199;-78
2022/05/17 10:39:40;;;;;;;4.07;2.03;;;;;;;28.68;26.91;94648.47;5052526;28;20200;-79
2022/05/17 10:42:07;;;;;;;5.25;1.80;;;;;;;28.85;26.79;94649.16;5052545;28;20996;-78
2022/05/17 10:44:40;;;;;;;3.65;1.98;;;;;;;28.86;25.76;94634.78;5062454;28;20196;-78
2022/05/17 10:47:15;;;;;;;2.45;1.90;;;;;;;29.22;26.95;94626.09;5052611;28;20270;-79
2022/05/17 10:49:56;;;;;;;4.13;1.80;;;;;;;29.33;26.12;94631.31;5039578;28;20202;-78
2022/05/17 10:52:29;;;;;;;4.15;1.83;;;;;;;29.27;26.26;94627.50;5039341;28;20212;-79
2022/05/17 10:55:03;;;;;;;3.42;1.67;;;;;;;28.42;26.37;94632.94;5043835;28;20192;-76
2022/05/17 10:57:39;;;;;;;3.40;1.55;;;;;;;28.33;26.15;94632.78;5049215;28;20235;-78
2022/05/17 11:00:14;;;;;;;3.17;1.73;;;;;;;28.09;26.05;94630.22;5053025;28;20192;-77
2022/05/17 11:03:15;;;;;;;2.28;1.85;;;;;;;28.33;26.68;94627.19;5047784;28;20641;-79
2022/05/17 11:06:01;;;;;;;5.10;1.80;;;;;;;28.49;26.80;94618.78;5045428;28;20215;-81
2022/05/17 11:08:39;;;;;;;1.55;1.45;;;;;;;28.03;26.81;94615.28;5045123;28;20202;-79
2022/05/17 11:11:21;;;;;;;2.10;1.52;;;;;;;27.88;26.90;94616.91;5032751;28;20219;-79
2022/05/17 11:13:54;;;;;;;2.63;1.90;;;;;;;28.13;27.13;94597.50;5035113;28;20315;-78
2022/05/17 11:16:26;;;;;;;2.90;1.90;;;;;;;28.32;26.21;94603.34;5052204;28;20557;-80
2022/05/17 11:18:59;;;;;;;3.95;1.88;;;;;;;28.38;26.61;94604.38;5039049;28;20245;-79
2022/05/17 11:21:30;;;;;;;2.88;2.13;;;;;;;27.93;27.86;94596.84;5040008;28;20224;-73
2022/05/17 11:24:06;;;;;;;3.13;1.88;;;;;;;28.32;27.68;94589.41;5045476;28;20204;-75
2022/05/17 11:26:57;;;;;;;4.25;2.13;;;;;;;28.50;29.16;94581.31;5045422;28;20188;-78
2022/05/17 11:29:58;;;;;;;2.58;1.88;;;;;;;28.14;28.66;94582.34;5043518;28;20203;-76
2022/05/17 11:32:29;;;;;;;3.38;2.10;;;;;;;28.07;28.95;94582.53;5041900;28;20214;-78
2022/05/17 11:34:59;;;;;;;5.13;1.92;;;;;;;28.05;28.60;94573.84;5051641;28;20223;-80
2022/05/17 11:37:50;;;;;;;4.88;2.30;;;;;;;28.69;29.28;94571.97;5051886;28;20195;-80
2022/05/17 11:40:56;;;;;;;5.68;2.00;;;;;;;28.87;27.81;94563.03;5040086;28;20196;-79
2022/05/17 11:43:42;;;;;;;4.38;1.83;;;;;;;28.49;27.70;94557.44;5043561;28;20661;-79
2022/05/17 11:46:53;;;;;;;3.72;2.50;;;;;;;27.79;29.53;94561.84;5054970;28;20227;-74
2022/05/17 11:49:47;;;;;;;3.60;1.90;;;;;;;27.63;29.24;94558.31;5038740;28;20196;-78
2022/05/17 11:52:33;;;;;;;3.40;2.08;;;;;;;28.18;29.32;94554.34;5051234;28;20706;-73